This is the latest recevied weather packets stored in our database for station/object KD8BMB. If no packets are shown the sender has not sent any weather packets the latest 10 day(s).
| Time | Temp. | Humidity | Pressure | Rain* | Wind** | Luminosity | Snow |
|---|---|---|---|---|---|---|---|
| 1777639560 | 5° C | 84% | 1014.7 hPa | 0 mm | - | 175 W/m² | - |
| 1777639256 | 5.56° C | 82% | 1014.4 hPa | 0 mm | - | 209 W/m² | - |
| 1777638952 | 6.11° C | 83% | 1014.7 hPa | 0 mm | - | 253 W/m² | - |
| 1777638648 | 5.56° C | 85% | 1014.5 hPa | 0 mm | - | 206 W/m² | - |
| 1777638345 | 4.44° C | 87% | 1014.4 hPa | 0 mm | - | 167 W/m² | - |
| 1777638041 | 4.44° C | 89% | 1014.5 hPa | 0 mm | - | 115 W/m² | - |
| 1777637737 | 4.44° C | 91% | 1014.3 hPa | 0 mm | - | 111 W/m² | - |
| 1777637434 | 4.44° C | 92% | 1014.4 hPa | 0 mm | - | 104 W/m² | - |
| 1777637126 | 3.89° C | 94% | 1014.3 hPa | 0 mm | - | 91 W/m² | - |
| 1777636822 | 3.89° C | 97% | 1014.4 hPa | 0 mm | - | 78 W/m² | - |
| 1777636518 | 3.33° C | 99% | 1014.4 hPa | 0 mm | - | 66 W/m² | - |
| 1777636215 | 3.33° C | 99% | 1014.3 hPa | 0 mm | - | 58 W/m² | - |
| 1777635909 | 3.33° C | 99% | 1014.4 hPa | 0 mm | - | 56 W/m² | - |
| 1777635605 | 3.89° C | 99% | 1014.3 hPa | 0 mm | - | 55 W/m² | - |
| 1777635302 | 3.33° C | 99% | 1014.4 hPa | 0 mm | - | 46 W/m² | - |
| 1777634999 | 3.33° C | 99% | 1014.2 hPa | 0 mm | - | 46 W/m² | - |
| 1777634695 | 3.33° C | 99% | 1014.2 hPa | 0 mm | - | 44 W/m² | - |
| 1777634393 | 2.78° C | 99% | 1014.1 hPa | 0 mm | - | 42 W/m² | - |
| 1777634090 | 2.78° C | 99% | 1014.1 hPa | 0 mm | - | 39 W/m² | - |
| 1777633786 | 2.22° C | 99% | 1014.1 hPa | 0 mm | - | 34 W/m² | - |
| 1777633484 | 2.22° C | 99% | 1014.3 hPa | 0 mm | - | 26 W/m² | - |
| 1777633182 | 2.22° C | 99% | 1013.9 hPa | 0 mm | - | 22 W/m² | - |
| 1777632878 | 2.22° C | 99% | 1013.9 hPa | 0 mm | - | 18 W/m² | - |
| 1777632574 | 1.67° C | 99% | 1013.8 hPa | 0 mm | - | 13 W/m² | - |
| 1777632272 | 1.67° C | 99% | 1013.7 hPa | 0 mm | - | 9 W/m² | - |
* Rain latest hour (hover to see other rain measurements)
** Current wind speed in m/s (hover to see current wind gust speed)